Time;durP1;ratioP1;P1;durP2;ratioP2;P2;SDS_P1;SDS_P2;PMS_P1;PMS_P2;Temp;Humidity;BMP_temperature;BMP_pressure;BME280_temperature;BME280_humidity;BME280_pressure;Samples;Min_cycle;Max_cycle;Signal;HPM_P1;HPM_P2
2021/08/21 00:01:26;;;;;;;8.23;6.20;;;;;;;;;;5015269;28;20061;-82
2021/08/21 00:03:52;;;;;;;8.77;6.30;;;;;;;;;;5005954;28;20386;-82
2021/08/21 00:06:17;;;;;;;7.78;6.07;;;;;;;;;;5014033;28;20037;-82
2021/08/21 00:08:42;;;;;;;7.32;6.18;;;;;;;;;;5011852;28;20034;-82
2021/08/21 00:11:08;;;;;;;8.07;5.88;;;;;;;;;;5026483;28;20427;-82
2021/08/21 00:13:33;;;;;;;7.88;6.30;;;;;;;;;;5031533;28;20164;-82
2021/08/21 00:15:59;;;;;;;8.13;6.38;;;;;;;;;;4995293;28;20490;-82
2021/08/21 00:18:25;;;;;;;8.57;6.00;;;;;;;;;;5027328;28;20044;-82
2021/08/21 00:20:50;;;;;;;8.10;5.93;;;;;;;;;;5031014;28;20029;-82
2021/08/21 00:23:16;;;;;;;8.02;6.03;;;;;;;;;;5011848;28;20022;-82
2021/08/21 00:25:41;;;;;;;7.45;5.95;;;;;;;;;;5024238;28;20021;-82
2021/08/21 00:28:06;;;;;;;8.13;6.20;;;;;;;;;;5014782;28;20022;-82
2021/08/21 00:30:32;;;;;;;10.30;6.78;;;;;;;;;;5015076;28;20056;-82
2021/08/21 00:32:57;;;;;;;8.20;6.47;;;;;;;;;;4998982;28;20108;-82
2021/08/21 00:35:23;;;;;;;9.13;7.10;;;;;;;;;;5030191;28;20052;-82
2021/08/21 00:37:50;;;;;;;11.32;7.47;;;;;;;;;;5018275;28;20036;-82
2021/08/21 00:40:16;;;;;;;9.63;7.45;;;;;;;;;;5034770;28;20025;-82
2021/08/21 00:42:41;;;;;;;9.00;7.38;;;;;;;;;;5034770;28;20078;-82
2021/08/21 00:45:08;;;;;;;8.45;7.55;;;;;;;;;;5035054;28;20021;-82
2021/08/21 00:47:33;;;;;;;9.68;7.95;;;;;;;;;;5034514;28;20026;-81
2021/08/21 00:49:59;;;;;;;9.80;8.35;;;;;;;;;;5032265;28;20064;-81
2021/08/21 00:52:27;;;;;;;10.80;8.07;;;;;;;;;;5031206;28;20486;-82
2021/08/21 00:54:53;;;;;;;9.02;7.45;;;;;;;;;;5030445;28;20029;-82
2021/08/21 00:57:19;;;;;;;9.98;7.93;;;;;;;;;;5034460;28;20366;-82
2021/08/21 00:59:46;;;;;;;9.50;7.75;;;;;;;;;;5014757;28;20057;-82
2021/08/21 01:02:13;;;;;;;9.63;7.32;;;;;;;;;;5033700;28;20021;-82
2021/08/21 01:04:51;;;;;;;10.70;7.45;;;;;;;;;;5035645;28;20029;-82
2021/08/21 01:07:26;;;;;;;9.48;7.65;;;;;;;;;;5021779;28;20032;-82
2021/08/21 01:09:51;;;;;;;9.18;7.53;;;;;;;;;;5037358;28;20021;-82
2021/08/21 01:12:19;;;;;;;8.80;7.15;;;;;;;;;;5002639;28;20432;-82
2021/08/21 01:14:46;;;;;;;9.70;7.28;;;;;;;;;;5035323;28;20052;-82
2021/08/21 01:17:12;;;;;;;8.77;7.00;;;;;;;;;;5035252;28;20025;-82
2021/08/21 01:19:43;;;;;;;8.27;6.78;;;;;;;;;;5017511;28;20045;-82
2021/08/21 01:22:12;;;;;;;9.05;6.80;;;;;;;;;;5034073;28;20032;-82
2021/08/21 01:24:46;;;;;;;8.95;7.00;;;;;;;;;;5033653;28;20057;-82
2021/08/21 01:27:20;;;;;;;10.15;6.80;;;;;;;;;;5033811;28;20496;-82
2021/08/21 01:29:46;;;;;;;9.70;6.63;;;;;;;;;;5035036;28;20465;-82
2021/08/21 01:32:12;;;;;;;8.80;7.10;;;;;;;;;;5033584;28;20493;-81
2021/08/21 01:34:38;;;;;;;9.57;7.90;;;;;;;;;;5000703;28;20034;-82
2021/08/21 01:37:04;;;;;;;10.60;8.00;;;;;;;;;;5033698;28;20099;-82
2021/08/21 01:39:29;;;;;;;10.18;8.00;;;;;;;;;;5035324;28;20030;-82
2021/08/21 01:41:54;;;;;;;9.85;7.97;;;;;;;;;;5034352;28;20441;-82
2021/08/21 01:44:20;;;;;;;9.93;7.95;;;;;;;;;;5000329;28;20128;-82
2021/08/21 01:46:49;;;;;;;10.75;8.07;;;;;;;;;;5033491;28;20051;-82
2021/08/21 01:49:19;;;;;;;12.70;9.35;;;;;;;;;;5030011;28;20034;-82
2021/08/21 01:51:48;;;;;;;10.30;8.50;;;;;;;;;;5032912;28;20032;-82
2021/08/21 01:54:15;;;;;;;11.57;8.85;;;;;;;;;;5033515;28;20171;-82
2021/08/21 01:56:45;;;;;;;11.20;8.25;;;;;;;;;;5016943;28;20531;-82
2021/08/21 01:59:28;;;;;;;10.95;8.32;;;;;;;;;;5033324;28;20029;-82
2021/08/21 02:01:54;;;;;;;10.93;9.10;;;;;;;;;;5033260;28;20045;-82
2021/08/21 02:04:20;;;;;;;10.95;8.18;;;;;;;;;;5000551;28;20123;-82
2021/08/21 02:06:46;;;;;;;10.75;8.30;;;;;;;;;;5033161;28;20033;-82
2021/08/21 02:09:13;;;;;;;10.35;8.55;;;;;;;;;;5013243;28;20096;-82
2021/08/21 02:11:38;;;;;;;11.32;8.25;;;;;;;;;;5033623;28;20034;-82
2021/08/21 02:14:04;;;;;;;10.40;8.63;;;;;;;;;;5029633;28;20037;-81
2021/08/21 02:16:30;;;;;;;13.65;8.80;;;;;;;;;;5024318;28;20053;-81
2021/08/21 02:18:55;;;;;;;10.80;8.73;;;;;;;;;;5014223;28;20421;-81
2021/08/21 02:21:22;;;;;;;11.25;9.25;;;;;;;;;;4996880;28;20033;-81
2021/08/21 02:23:48;;;;;;;11.18;9.07;;;;;;;;;;5029423;28;20033;-81
2021/08/21 02:26:13;;;;;;;11.70;9.02;;;;;;;;;;4999953;28;20066;-81
2021/08/21 02:28:39;;;;;;;14.45;9.50;;;;;;;;;;5015985;28;20025;-81
2021/08/21 02:31:04;;;;;;;12.73;9.32;;;;;;;;;;5016035;28;20148;-81
2021/08/21 02:33:30;;;;;;;11.30;9.60;;;;;;;;;;5016074;28;20030;-81
2021/08/21 02:35:55;;;;;;;11.18;8.90;;;;;;;;;;5032527;28;20029;-81
2021/08/21 02:38:22;;;;;;;9.90;8.50;;;;;;;;;;5013688;28;20069;-81
2021/08/21 02:40:48;;;;;;;10.80;8.65;;;;;;;;;;5032601;28;20457;-81
2021/08/21 02:43:14;;;;;;;12.82;9.70;;;;;;;;;;5029156;28;20060;-81
2021/08/21 02:45:39;;;;;;;11.98;9.38;;;;;;;;;;5029157;28;20064;-81
2021/08/21 02:48:05;;;;;;;10.23;8.73;;;;;;;;;;5015810;28;20033;-81
2021/08/21 02:50:31;;;;;;;11.90;9.38;;;;;;;;;;5032315;28;20030;-81
2021/08/21 02:52:56;;;;;;;12.10;8.93;;;;;;;;;;5033472;28;20033;-81
2021/08/21 02:55:21;;;;;;;11.50;9.18;;;;;;;;;;5015962;28;20033;-81
2021/08/21 02:57:47;;;;;;;13.85;10.60;;;;;;;;;;5032151;28;20478;-81
2021/08/21 03:00:13;;;;;;;11.45;9.95;;;;;;;;;;5015793;28;20025;-81
2021/08/21 03:02:40;;;;;;;11.90;10.18;;;;;;;;;;5033230;28;20036;-81
2021/08/21 03:05:07;;;;;;;12.98;10.65;;;;;;;;;;5015404;28;20030;-81
2021/08/21 03:07:32;;;;;;;14.20;10.40;;;;;;;;;;5006766;28;20025;-81
2021/08/21 03:09:58;;;;;;;12.52;10.05;;;;;;;;;;5032093;28;20029;-81
2021/08/21 03:12:23;;;;;;;11.63;9.55;;;;;;;;;;5031960;28;20144;-81
2021/08/21 03:14:48;;;;;;;12.13;10.13;;;;;;;;;;5028930;28;20498;-81
2021/08/21 03:17:14;;;;;;;12.63;10.10;;;;;;;;;;5015582;28;20038;-81
2021/08/21 03:19:41;;;;;;;12.25;10.73;;;;;;;;;;5015692;28;20051;-81
2021/08/21 03:22:07;;;;;;;12.13;10.65;;;;;;;;;;4996196;28;20033;-81
2021/08/21 03:24:32;;;;;;;13.27;10.85;;;;;;;;;;5012830;28;20030;-81
2021/08/21 03:26:58;;;;;;;12.77;11.05;;;;;;;;;;5031811;28;20053;-81
2021/08/21 03:29:23;;;;;;;12.13;10.18;;;;;;;;;;4998872;28;20474;-81
2021/08/21 03:31:48;;;;;;;13.05;10.45;;;;;;;;;;5015239;28;20107;-81
2021/08/21 03:34:14;;;;;;;14.25;10.45;;;;;;;;;;5031874;28;20076;-81
2021/08/21 03:36:39;;;;;;;12.45;10.30;;;;;;;;;;4998877;28;20021;-81
2021/08/21 03:39:04;;;;;;;14.57;11.00;;;;;;;;;;5031580;28;20029;-81
2021/08/21 03:41:30;;;;;;;13.32;11.00;;;;;;;;;;5015196;28;20111;-81
2021/08/21 03:43:55;;;;;;;12.27;10.43;;;;;;;;;;5015224;28;20037;-81
2021/08/21 03:46:22;;;;;;;12.45;9.75;;;;;;;;;;5015352;28;20393;-81
2021/08/21 03:48:47;;;;;;;12.20;10.52;;;;;;;;;;5015236;28;20033;-81
2021/08/21 03:51:12;;;;;;;12.23;10.65;;;;;;;;;;5031721;28;20025;-82
2021/08/21 03:53:38;;;;;;;13.70;11.52;;;;;;;;;;5031981;28;20038;-81
2021/08/21 03:56:03;;;;;;;13.40;10.82;;;;;;;;;;5015396;28;20477;-81
2021/08/21 03:58:28;;;;;;;16.15;12.15;;;;;;;;;;5032745;28;20053;-81
2021/08/21 04:00:54;;;;;;;16.95;12.10;;;;;;;;;;5032091;28;20064;-81
2021/08/21 04:03:19;;;;;;;15.90;11.88;;;;;;;;;;5031469;28;20466;-81
2021/08/21 04:05:45;;;;;;;15.15;11.75;;;;;;;;;;5032103;28;20079;-81
2021/08/21 04:08:10;;;;;;;15.73;11.82;;;;;;;;;;5035166;28;20038;-81
2021/08/21 04:10:38;;;;;;;15.88;11.70;;;;;;;;;;5026807;28;20063;-81
2021/08/21 04:13:03;;;;;;;14.88;12.13;;;;;;;;;;5040578;28;20067;-81
2021/08/21 04:15:29;;;;;;;15.13;12.07;;;;;;;;;;5018720;28;20050;-81
2021/08/21 04:17:54;;;;;;;13.77;12.15;;;;;;;;;;5018696;28;20434;-81
2021/08/21 04:20:21;;;;;;;14.00;12.23;;;;;;;;;;5019200;28;20479;-82
2021/08/21 04:22:46;;;;;;;14.63;12.05;;;;;;;;;;5035184;28;20087;-82
2021/08/21 04:25:12;;;;;;;16.58;12.73;;;;;;;;;;5035092;28;20025;-81
2021/08/21 04:27:37;;;;;;;16.20;11.38;;;;;;;;;;5036362;28;20025;-81
2021/08/21 04:30:04;;;;;;;14.48;12.15;;;;;;;;;;5034852;28;20508;-81
2021/08/21 04:32:29;;;;;;;12.80;11.20;;;;;;;;;;5036358;28;20025;-81
2021/08/21 04:34:55;;;;;;;13.00;11.02;;;;;;;;;;5018235;28;20036;-81
2021/08/21 04:37:20;;;;;;;16.02;11.40;;;;;;;;;;5034843;28;20025;-81
2021/08/21 04:39:46;;;;;;;14.45;11.10;;;;;;;;;;5018150;28;20037;-81
2021/08/21 04:42:11;;;;;;;16.05;10.38;;;;;;;;;;5036065;28;20029;-81
2021/08/21 04:44:36;;;;;;;14.40;10.32;;;;;;;;;;5018110;28;20036;-81
2021/08/21 04:47:02;;;;;;;13.00;10.55;;;;;;;;;;5018065;28;20551;-81
2021/08/21 04:49:28;;;;;;;13.45;11.27;;;;;;;;;;5018016;28;20025;-81
2021/08/21 04:51:54;;;;;;;14.38;12.23;;;;;;;;;;5036010;28;20389;-81
2021/08/21 04:54:20;;;;;;;13.98;11.80;;;;;;;;;;4998492;28;20384;-81
2021/08/21 04:56:45;;;;;;;18.40;12.45;;;;;;;;;;5015885;28;20116;-81
2021/08/21 04:59:11;;;;;;;17.92;12.50;;;;;;;;;;5034529;28;20045;-81
2021/08/21 05:01:36;;;;;;;17.42;13.35;;;;;;;;;;5017946;28;20028;-81
2021/08/21 05:04:01;;;;;;;17.92;13.13;;;;;;;;;;5035335;28;20384;-81
2021/08/21 05:06:27;;;;;;;18.38;14.48;;;;;;;;;;5017814;28;20079;-81
2021/08/21 05:08:52;;;;;;;17.13;12.82;;;;;;;;;;5034205;28;20393;-81
2021/08/21 05:11:18;;;;;;;19.10;13.45;;;;;;;;;;5017579;28;20051;-81
2021/08/21 05:13:43;;;;;;;19.25;14.45;;;;;;;;;;5033996;28;20034;-81
2021/08/21 05:16:09;;;;;;;19.98;14.80;;;;;;;;;;5034184;28;20053;-81
2021/08/21 05:18:43;;;;;;;17.90;13.10;;;;;;;;;;5033823;28;20539;-81
2021/08/21 05:21:13;;;;;;;18.60;13.35;;;;;;;;;;5003736;28;20053;-81
2021/08/21 05:23:38;;;;;;;17.20;13.30;;;;;;;;;;5033946;28;20517;-81
2021/08/21 05:26:04;;;;;;;16.70;12.55;;;;;;;;;;5034064;28;20044;-81
2021/08/21 05:28:30;;;;;;;20.50;14.18;;;;;;;;;;5033707;28;20017;-81
2021/08/21 05:30:56;;;;;;;21.58;15.45;;;;;;;;;;5017198;28;20048;-81
2021/08/21 05:33:21;;;;;;;17.20;13.73;;;;;;;;;;5017369;28;20095;-82
2021/08/21 05:35:47;;;;;;;21.33;14.82;;;;;;;;;;5033877;28;20033;-82
2021/08/21 05:38:12;;;;;;;21.05;14.77;;;;;;;;;;5033597;28;20025;-82
2021/08/21 05:40:39;;;;;;;18.52;14.68;;;;;;;;;;5016936;28;20033;-81
2021/08/21 05:43:04;;;;;;;19.20;14.38;;;;;;;;;;5033541;28;20068;-81
2021/08/21 05:45:30;;;;;;;20.55;14.85;;;;;;;;;;5033607;28;20053;-81
2021/08/21 05:47:56;;;;;;;21.50;15.18;;;;;;;;;;4997259;28;20029;-81
2021/08/21 05:50:22;;;;;;;18.23;13.48;;;;;;;;;;5024613;28;20385;-81
2021/08/21 05:52:48;;;;;;;19.67;15.38;;;;;;;;;;5033250;28;20022;-81
2021/08/21 05:55:14;;;;;;;20.73;14.75;;;;;;;;;;5033445;28;20040;-81
2021/08/21 05:57:39;;;;;;;17.98;13.50;;;;;;;;;;5033373;28;20025;-81
2021/08/21 06:00:06;;;;;;;19.42;14.82;;;;;;;;;;5016804;28;20029;-81
2021/08/21 06:02:32;;;;;;;18.90;13.82;;;;;;;;;;5016755;28;20365;-81
2021/08/21 06:04:57;;;;;;;20.67;15.38;;;;;;;;;;5016862;28;20078;-81
2021/08/21 06:07:22;;;;;;;19.77;14.77;;;;;;;;;;5033131;28;20037;-81
2021/08/21 06:09:48;;;;;;;20.45;15.55;;;;;;;;;;5034069;28;20040;-81
2021/08/21 06:12:14;;;;;;;21.77;16.13;;;;;;;;;;5016644;28;20036;-81
2021/08/21 06:14:39;;;;;;;21.38;16.80;;;;;;;;;;5016205;28;20060;-81
2021/08/21 06:17:06;;;;;;;21.48;16.58;;;;;;;;;;5016564;28;20026;-81
2021/08/21 06:19:31;;;;;;;25.38;17.55;;;;;;;;;;5034604;28;20097;-82
2021/08/21 06:21:57;;;;;;;23.23;16.95;;;;;;;;;;5016424;28;20112;-82
2021/08/21 06:24:22;;;;;;;23.63;17.02;;;;;;;;;;5000009;28;20035;-82
2021/08/21 06:26:48;;;;;;;22.85;17.13;;;;;;;;;;5016417;28;20040;-81
2021/08/21 06:29:13;;;;;;;23.88;19.08;;;;;;;;;;5001007;28;20436;-82
2021/08/21 06:31:38;;;;;;;26.60;19.23;;;;;;;;;;5033782;28;20041;-82
2021/08/21 06:34:04;;;;;;;25.92;19.52;;;;;;;;;;5016353;28;20056;-82
2021/08/21 06:36:29;;;;;;;25.25;18.80;;;;;;;;;;5016034;28;20041;-82
2021/08/21 06:38:55;;;;;;;27.25;19.10;;;;;;;;;;5033893;28;20032;-82
2021/08/21 06:41:20;;;;;;;25.20;19.30;;;;;;;;;;5033664;28;20037;-82
2021/08/21 06:43:45;;;;;;;29.23;19.63;;;;;;;;;;4999915;28;20037;-82
2021/08/21 06:46:11;;;;;;;28.70;20.17;;;;;;;;;;4999760;28;20064;-82
2021/08/21 06:48:36;;;;;;;24.70;19.40;;;;;;;;;;5032514;28;20186;-82
2021/08/21 06:51:02;;;;;;;24.42;20.05;;;;;;;;;;5032589;28;20029;-82
2021/08/21 06:53:29;;;;;;;28.92;20.42;;;;;;;;;;5032236;28;20050;-82
2021/08/21 06:55:55;;;;;;;26.88;19.38;;;;;;;;;;4996576;28;20037;-82
2021/08/21 06:58:21;;;;;;;26.05;20.17;;;;;;;;;;4996316;28;20030;-82
2021/08/21 07:00:47;;;;;;;27.35;19.05;;;;;;;;;;5032172;28;20029;-82
2021/08/21 07:03:12;;;;;;;26.50;19.48;;;;;;;;;;5032026;28;20132;-82
2021/08/21 07:05:38;;;;;;;26.30;19.60;;;;;;;;;;5033260;28;20029;-82
2021/08/21 07:08:04;;;;;;;25.88;19.23;;;;;;;;;;5033470;28;20095;-82
2021/08/21 07:10:29;;;;;;;28.65;19.67;;;;;;;;;;5032240;28;20029;-82
2021/08/21 07:12:55;;;;;;;25.45;18.80;;;;;;;;;;4999229;28;20116;-82
2021/08/21 07:15:20;;;;;;;26.67;19.85;;;;;;;;;;4995929;28;20053;-82
2021/08/21 07:17:45;;;;;;;28.20;19.23;;;;;;;;;;5026944;28;20112;-82
2021/08/21 07:20:11;;;;;;;27.88;19.52;;;;;;;;;;5031842;28;20022;-82
2021/08/21 07:22:37;;;;;;;27.83;19.23;;;;;;;;;;5015514;28;20025;-82
2021/08/21 07:25:03;;;;;;;25.80;19.13;;;;;;;;;;5032011;28;20273;-82
2021/08/21 07:27:29;;;;;;;26.13;18.42;;;;;;;;;;5031915;28;20410;-82
2021/08/21 07:29:54;;;;;;;26.83;19.08;;;;;;;;;;5014934;28;20033;-81
2021/08/21 07:32:20;;;;;;;23.98;18.05;;;;;;;;;;5032995;28;20029;-81
2021/08/21 07:34:45;;;;;;;26.63;18.27;;;;;;;;;;5032269;28;20446;-81
2021/08/21 07:37:10;;;;;;;24.50;18.58;;;;;;;;;;5015182;28;20048;-81
2021/08/21 07:39:36;;;;;;;23.35;17.70;;;;;;;;;;5015747;28;20029;-81
2021/08/21 07:42:01;;;;;;;25.15;19.23;;;;;;;;;;5001780;28;20033;-81
2021/08/21 07:44:27;;;;;;;23.08;17.92;;;;;;;;;;5002925;28;20075;-81
2021/08/21 07:46:52;;;;;;;24.50;17.67;;;;;;;;;;5019311;28;20037;-81
2021/08/21 07:49:18;;;;;;;25.10;18.05;;;;;;;;;;5036487;28;20040;-81
2021/08/21 07:51:43;;;;;;;24.10;18.27;;;;;;;;;;5019559;28;20040;-81
2021/08/21 07:54:09;;;;;;;26.67;17.70;;;;;;;;;;5037532;28;20056;-81
2021/08/21 07:56:34;;;;;;;24.20;18.75;;;;;;;;;;5000296;28;20144;-81
2021/08/21 07:58:59;;;;;;;26.35;19.00;;;;;;;;;;5015787;28;20025;-81
2021/08/21 08:01:25;;;;;;;24.00;17.85;;;;;;;;;;5036042;28;20079;-81
2021/08/21 08:03:50;;;;;;;24.63;18.25;;;;;;;;;;5019394;28;20053;-81
2021/08/21 08:06:16;;;;;;;21.05;17.52;;;;;;;;;;5035560;28;20389;-81
2021/08/21 08:08:41;;;;;;;22.85;18.10;;;;;;;;;;5002894;28;20032;-82
2021/08/21 08:11:07;;;;;;;23.42;17.48;;;;;;;;;;5004158;28;20025;-82
2021/08/21 08:13:32;;;;;;;21.95;17.30;;;;;;;;;;5019278;28;20033;-82
2021/08/21 08:15:58;;;;;;;22.77;17.13;;;;;;;;;;5035014;28;20143;-82
2021/08/21 08:18:24;;;;;;;23.15;16.45;;;;;;;;;;5035544;28;20495;-82
2021/08/21 08:20:49;;;;;;;20.50;16.10;;;;;;;;;;5018771;28;20412;-81
2021/08/21 08:23:15;;;;;;;19.55;15.38;;;;;;;;;;5036905;28;20063;-81
2021/08/21 08:25:40;;;;;;;19.42;15.45;;;;;;;;;;5035591;28;20469;-81
2021/08/21 08:28:06;;;;;;;18.17;15.15;;;;;;;;;;5015468;28;20026;-81
2021/08/21 08:30:31;;;;;;;20.52;15.80;;;;;;;;;;5025397;28;20040;-81
2021/08/21 08:32:57;;;;;;;17.90;14.98;;;;;;;;;;5002448;28;20032;-81
2021/08/21 08:35:23;;;;;;;20.45;15.15;;;;;;;;;;5002404;28;20025;-81
2021/08/21 08:37:48;;;;;;;21.63;16.10;;;;;;;;;;5018711;28;20030;-81
2021/08/21 08:40:14;;;;;;;18.77;14.85;;;;;;;;;;5036589;28;20495;-81
2021/08/21 08:42:41;;;;;;;20.95;15.38;;;;;;;;;;5018935;28;20037;-81
2021/08/21 08:45:08;;;;;;;18.17;14.77;;;;;;;;;;5035181;28;20025;-81
2021/08/21 08:47:35;;;;;;;19.90;14.88;;;;;;;;;;5035204;28;20033;-81
2021/08/21 08:50:04;;;;;;;17.08;14.65;;;;;;;;;;5019635;28;20495;-81
2021/08/21 08:52:30;;;;;;;18.58;14.63;;;;;;;;;;5035122;28;20025;-82
2021/08/21 08:54:56;;;;;;;17.10;14.15;;;;;;;;;;5035462;28;20048;-82
2021/08/21 08:57:39;;;;;;;17.58;14.20;;;;;;;;;;5035846;28;20029;-82
2021/08/21 09:00:09;;;;;;;;;;;;;;;;;;5035836;28;20026;-82
2021/08/21 09:02:40;;;;;;;18.48;14.57;;;;;;;;;;5036422;28;19992;-81
2021/08/21 09:05:09;;;;;;;17.27;13.38;;;;;;;;;;5020136;28;20373;-82
2021/08/21 09:07:45;;;;;;;16.45;13.70;;;;;;;;;;5035680;28;20116;-82
2021/08/21 09:10:25;;;;;;;15.05;13.00;;;;;;;;;;5034636;28;20021;-82
2021/08/21 09:13:04;;;;;;;12.48;10.48;;;;;;;;;;5018242;28;20036;-82
2021/08/21 09:15:31;;;;;;;13.60;9.52;;;;;;;;;;5025325;28;20045;-82
2021/08/21 09:18:01;;;;;;;15.38;9.68;;;;;;;;;;5036401;28;20465;-82
2021/08/21 09:20:27;;;;;;;11.40;7.88;;;;;;;;;;5036298;28;20489;-82
2021/08/21 09:22:52;;;;;;;11.15;8.15;;;;;;;;;;5018488;28;20056;-82
2021/08/21 09:25:28;;;;;;;11.13;8.07;;;;;;;;;;5001860;28;20037;-82
2021/08/21 09:27:53;;;;;;;10.07;6.95;;;;;;;;;;5035468;28;20021;-82
2021/08/21 09:30:19;;;;;;;11.25;7.70;;;;;;;;;;5017805;28;20076;-82
2021/08/21 09:32:45;;;;;;;10.05;7.63;;;;;;;;;;5034906;28;20040;-82
2021/08/21 09:35:13;;;;;;;9.18;6.75;;;;;;;;;;5036277;28;20108;-82
2021/08/21 09:37:49;;;;;;;10.75;6.57;;;;;;;;;;5036060;28;20067;-82
2021/08/21 09:40:36;;;;;;;9.50;7.00;;;;;;;;;;5034086;28;20026;-82
2021/08/21 09:43:05;;;;;;;7.97;6.53;;;;;;;;;;5030707;28;20052;-82
2021/08/21 09:45:35;;;;;;;9.50;6.70;;;;;;;;;;5027713;28;20026;-82
2021/08/21 09:48:06;;;;;;;11.48;8.30;;;;;;;;;;5034075;28;20473;-82
2021/08/21 09:50:40;;;;;;;8.85;5.30;;;;;;;;;;5033894;28;20500;-81
2021/08/21 09:53:07;;;;;;;8.95;4.97;;;;;;;;;;5030858;28;20033;-82
2021/08/21 09:55:33;;;;;;;7.43;4.82;;;;;;;;;;5031114;28;20461;-82
2021/08/21 09:58:01;;;;;;;7.40;4.93;;;;;;;;;;5034734;28;20068;-82
2021/08/21 10:00:28;;;;;;;9.85;7.50;;;;;;;;;;5034725;28;20480;-82
2021/08/21 10:02:56;;;;;;;11.75;7.38;;;;;;;;;;5030227;28;20032;-82
2021/08/21 10:05:22;;;;;;;9.23;6.80;;;;;;;;;;5031291;28;20032;-82
2021/08/21 10:07:54;;;;;;;10.93;6.63;;;;;;;;;;5016887;28;20029;-82
2021/08/21 10:10:22;;;;;;;10.77;7.05;;;;;;;;;;5034795;28;20025;-82
2021/08/21 10:12:53;;;;;;;11.10;7.85;;;;;;;;;;5001264;28;20485;-82
2021/08/21 10:15:21;;;;;;;11.90;8.40;;;;;;;;;;5030153;28;20101;-82
2021/08/21 10:17:47;;;;;;;10.05;6.47;;;;;;;;;;5029821;28;20021;-82
2021/08/21 10:20:13;;;;;;;8.98;6.95;;;;;;;;;;5033722;28;20453;-82
2021/08/21 10:22:40;;;;;;;10.65;8.30;;;;;;;;;;5033147;28;20428;-82
2021/08/21 10:25:07;;;;;;;9.35;6.35;;;;;;;;;;5016590;28;20116;-82
2021/08/21 10:27:50;;;;;;;8.38;6.10;;;;;;;;;;5000162;28;20032;-82
2021/08/21 10:30:20;;;;;;;6.95;6.00;;;;;;;;;;5032541;28;20053;-82
2021/08/21 10:33:00;;;;;;;7.72;5.72;;;;;;;;;;5034379;28;20107;-82
2021/08/21 10:35:50;;;;;;;10.27;8.23;;;;;;;;;;5034081;28;20026;-82
2021/08/21 10:38:31;;;;;;;10.80;7.28;;;;;;;;;;5029754;28;20048;-82
2021/08/21 10:41:10;;;;;;;10.80;7.60;;;;;;;;;;5030526;28;20026;-82
2021/08/21 10:43:53;;;;;;;10.02;7.32;;;;;;;;;;5033922;28;20108;-82
2021/08/21 10:46:31;;;;;;;12.48;7.55;;;;;;;;;;5033056;28;20362;-82
2021/08/21 10:48:58;;;;;;;8.23;6.15;;;;;;;;;;5034772;28;20025;-82
2021/08/21 10:51:38;;;;;;;10.15;6.03;;;;;;;;;;5013591;28;20034;-82
2021/08/21 10:54:33;;;;;;;9.65;6.70;;;;;;;;;;5022023;28;20021;-82
2021/08/21 10:57:25;;;;;;;8.23;6.10;;;;;;;;;;5036176;28;20034;-83
2021/08/21 10:59:50;;;;;;;11.20;6.60;;;;;;;;;;5034001;28;20385;-82
2021/08/21 11:02:31;;;;;;;8.40;5.93;;;;;;;;;;5032678;28;20025;-82
2021/08/21 11:04:57;;;;;;;10.68;7.00;;;;;;;;;;5033782;28;20026;-82
2021/08/21 11:07:32;;;;;;;11.15;6.25;;;;;;;;;;5032453;28;20017;-82
2021/08/21 11:10:16;;;;;;;5.80;3.55;;;;;;;;;;5035331;28;20052;-82
2021/08/21 11:12:45;;;;;;;5.10;3.15;;;;;;;;;;5007529;28;20531;-82
2021/08/21 11:15:20;;;;;;;5.72;3.40;;;;;;;;;;5005402;28;20045;-82
2021/08/21 11:17:46;;;;;;;5.40;3.17;;;;;;;;;;5032286;28;20100;-82
2021/08/21 11:20:28;;;;;;;5.75;2.80;;;;;;;;;;5032236;28;20124;-82
2021/08/21 11:23:06;;;;;;;4.72;2.65;;;;;;;;;;5032342;28;20034;-82
2021/08/21 11:25:39;;;;;;;4.75;3.20;;;;;;;;;;5032521;28;20385;-82
2021/08/21 11:28:07;;;;;;;5.18;3.50;;;;;;;;;;5032631;28;20088;-82
2021/08/21 11:30:37;;;;;;;5.60;3.42;;;;;;;;;;5032229;28;20112;-82
2021/08/21 11:33:08;;;;;;;7.55;3.30;;;;;;;;;;5034068;28;20477;-82
2021/08/21 11:35:45;;;;;;;5.18;3.13;;;;;;;;;;5032761;28;20487;-82
2021/08/21 11:38:14;;;;;;;5.45;3.28;;;;;;;;;;5031712;28;20031;-82
2021/08/21 11:40:43;;;;;;;5.38;2.92;;;;;;;;;;5031927;28;20029;-82
2021/08/21 11:43:14;;;;;;;5.38;3.22;;;;;;;;;;5031853;28;20029;-82
2021/08/21 11:45:40;;;;;;;6.03;3.53;;;;;;;;;;5033509;28;20097;-82
2021/08/21 11:48:06;;;;;;;6.05;3.30;;;;;;;;;;4998849;28;20562;-82
2021/08/21 11:50:43;;;;;;;4.88;3.10;;;;;;;;;;5032213;28;20125;-82
2021/08/21 11:53:30;;;;;;;4.40;3.00;;;;;;;;;;5020600;28;20028;-82
2021/08/21 11:55:57;;;;;;;4.40;2.83;;;;;;;;;;5037286;28;20038;-82
2021/08/21 11:58:34;;;;;;;5.30;3.00;;;;;;;;;;5031641;28;20497;-82
2021/08/21 12:01:10;;;;;;;5.80;2.83;;;;;;;;;;5031569;28;20034;-82
2021/08/21 12:06:21;;;;;;;5.93;2.88;;;;;;;;;;5015475;28;20508;-82
2021/08/21 12:08:47;;;;;;;5.65;3.33;;;;;;;;;;5031589;28;20117;-82
2021/08/21 12:11:13;;;;;;;6.05;2.65;;;;;;;;;;5038251;28;20498;-82
2021/08/21 12:13:39;;;;;;;4.57;2.85;;;;;;;;;;5031809;28;20037;-82
2021/08/21 12:16:14;;;;;;;6.70;2.90;;;;;;;;;;5015032;28;20088;-82
2021/08/21 12:18:52;;;;;;;5.35;3.00;;;;;;;;;;5031214;28;20054;-82
2021/08/21 12:21:20;;;;;;;5.07;2.50;;;;;;;;;;5028406;28;20026;-82
2021/08/21 12:23:47;;;;;;;5.90;2.50;;;;;;;;;;5028128;28;20072;-82
2021/08/21 12:26:13;;;;;;;3.53;2.40;;;;;;;;;;5033816;28;20025;-82
2021/08/21 12:28:41;;;;;;;4.43;2.65;;;;;;;;;;5036897;28;20028;-82
2021/08/21 12:31:15;;;;;;;4.53;2.30;;;;;;;;;;5035452;28;20428;-82
2021/08/21 12:33:46;;;;;;;4.45;2.60;;;;;;;;;;5037270;28;20087;-82
2021/08/21 12:36:21;;;;;;;3.42;2.35;;;;;;;;;;5036124;28;20025;-82
2021/08/21 12:39:10;;;;;;;4.00;1.88;;;;;;;;;;5024937;28;20030;-82
2021/08/21 12:41:51;;;;;;;4.07;2.30;;;;;;;;;;5035716;28;20026;-82
2021/08/21 12:44:19;;;;;;;3.58;2.33;;;;;;;;;;5019440;28;20025;-82
2021/08/21 12:46:55;;;;;;;3.58;2.17;;;;;;;;;;5034218;28;20025;-82
2021/08/21 12:49:40;;;;;;;3.60;2.30;;;;;;;;;;5036161;28;20030;-82
2021/08/21 12:52:27;;;;;;;4.55;2.10;;;;;;;;;;5032147;28;20026;-82
2021/08/21 12:55:01;;;;;;;11.85;2.88;;;;;;;;;;5038486;28;20029;-82
2021/08/21 12:57:35;;;;;;;7.05;2.30;;;;;;;;;;5035324;28;20100;-82
2021/08/21 13:00:23;;;;;;;4.40;2.10;;;;;;;;;;5034859;28;20033;-82
2021/08/21 13:02:52;;;;;;;4.03;2.20;;;;;;;;;;5036236;28;20097;-82
2021/08/21 13:05:21;;;;;;;4.07;1.98;;;;;;;;;;5031370;28;20030;-82
2021/08/21 13:08:03;;;;;;;4.32;2.00;;;;;;;;;;5030430;28;20021;-82
2021/08/21 13:10:31;;;;;;;4.45;2.60;;;;;;;;;;5035880;28;20029;-82
2021/08/21 13:12:56;;;;;;;3.90;2.25;;;;;;;;;;5034643;28;20021;-82
2021/08/21 13:15:22;;;;;;;4.07;2.80;;;;;;;;;;5034456;28;20052;-82
2021/08/21 13:17:48;;;;;;;4.28;2.10;;;;;;;;;;5034775;28;20083;-82
2021/08/21 13:20:16;;;;;;;3.95;2.53;;;;;;;;;;5034204;28;20025;-82
2021/08/21 13:22:42;;;;;;;3.58;2.50;;;;;;;;;;5034163;28;20076;-82
2021/08/21 13:25:08;;;;;;;3.65;2.25;;;;;;;;;;5017862;28;20045;-82
2021/08/21 13:27:35;;;;;;;5.57;2.50;;;;;;;;;;5033758;28;20029;-82
2021/08/21 13:30:01;;;;;;;4.38;2.38;;;;;;;;;;5032248;28;20041;-82
2021/08/21 13:32:27;;;;;;;4.25;2.40;;;;;;;;;;5036297;28;20053;-82
2021/08/21 13:34:52;;;;;;;3.63;2.40;;;;;;;;;;5034395;28;20074;-82
2021/08/21 13:37:18;;;;;;;5.35;2.80;;;;;;;;;;5017438;28;20021;-82
2021/08/21 13:39:44;;;;;;;4.53;2.55;;;;;;;;;;5032786;28;20659;-82
2021/08/21 13:42:10;;;;;;;4.70;2.50;;;;;;;;;;5033990;28;20052;-82
2021/08/21 13:44:36;;;;;;;5.18;2.40;;;;;;;;;;5033867;28;20066;-82
2021/08/21 13:47:01;;;;;;;5.72;2.30;;;;;;;;;;5017318;28;20116;-82
2021/08/21 13:49:28;;;;;;;3.45;2.00;;;;;;;;;;5017056;28;20025;-82
2021/08/21 13:51:53;;;;;;;3.38;2.35;;;;;;;;;;5030598;28;20041;-82
2021/08/21 13:54:19;;;;;;;3.85;2.33;;;;;;;;;;5032101;28;20033;-82
2021/08/21 13:56:45;;;;;;;5.35;2.28;;;;;;;;;;5033475;28;20106;-82
2021/08/21 13:59:10;;;;;;;4.70;2.40;;;;;;;;;;5034776;28;20469;-82
2021/08/21 14:01:37;;;;;;;6.88;2.47;;;;;;;;;;5024297;28;20038;-82
2021/08/21 14:04:03;;;;;;;6.55;2.25;;;;;;;;;;4997664;28;20030;-82
2021/08/21 14:06:29;;;;;;;3.15;2.20;;;;;;;;;;5032488;28;20485;-82
2021/08/21 14:08:54;;;;;;;4.22;2.05;;;;;;;;;;5033105;28;20079;-82
2021/08/21 14:11:20;;;;;;;4.88;2.30;;;;;;;;;;5015961;28;20053;-82
2021/08/21 14:13:45;;;;;;;4.05;1.90;;;;;;;;;;5029615;28;20048;-82
2021/08/21 14:16:11;;;;;;;3.28;1.98;;;;;;;;;;5013262;28;20407;-82
2021/08/21 14:18:36;;;;;;;3.83;2.00;;;;;;;;;;5010955;28;20026;-82
2021/08/21 14:21:02;;;;;;;2.58;1.90;;;;;;;;;;5000237;28;20060;-82
2021/08/21 14:23:27;;;;;;;3.28;2.10;;;;;;;;;;5033017;28;20539;-82
2021/08/21 14:25:53;;;;;;;2.58;1.73;;;;;;;;;;5033130;28;20036;-82
2021/08/21 14:28:18;;;;;;;3.03;2.17;;;;;;;;;;5033025;28;20037;-82
2021/08/21 14:30:44;;;;;;;5.53;2.10;;;;;;;;;;5000144;28;20111;-82
2021/08/21 14:33:12;;;;;;;3.83;2.20;;;;;;;;;;5034192;28;20380;-82
2021/08/21 14:35:38;;;;;;;5.10;2.30;;;;;;;;;;5032832;28;20017;-82
2021/08/21 14:38:04;;;;;;;3.67;2.05;;;;;;;;;;5029584;28;20045;-82